Time;durP1;ratioP1;P1;durP2;ratioP2;P2;SDS_P1;SDS_P2;PMS_P1;PMS_P2;Temp;Humidity;BMP_temperature;BMP_pressure;BME280_temperature;BME280_humidity;BME280_pressure;Samples;Min_cycle;Max_cycle;Signal;HPM_P1;HPM_P2
2022/05/07 00:01:08;;;;;;;27.77;25.50;;;;;;;;;;5070055;28;21007;-94
2022/05/07 00:03:35;;;;;;;27.60;25.40;;;;;;;;;;5054474;28;20524;-94
2022/05/07 00:06:04;;;;;;;26.63;24.83;;;;;;;;;;5054134;28;20531;-93
2022/05/07 00:08:32;;;;;;;26.53;24.73;;;;;;;;;;5069220;28;20904;-94
2022/05/07 00:10:59;;;;;;;27.57;25.60;;;;;;;;;;5054387;28;20460;-93
2022/05/07 00:13:27;;;;;;;27.27;25.37;;;;;;;;;;5054294;28;20455;-94
2022/05/07 00:18:39;;;;;;;27.33;25.23;;;;;;;;;;5054442;28;20389;-93
2022/05/07 00:21:09;;;;;;;27.77;25.80;;;;;;;;;;5053962;28;20431;-93
2022/05/07 00:23:37;;;;;;;28.50;26.50;;;;;;;;;;5053762;28;20973;-93
2022/05/07 00:26:05;;;;;;;27.43;25.43;;;;;;;;;;5053709;28;20472;-94
2022/05/07 00:28:33;;;;;;;27.13;25.03;;;;;;;;;;5053735;28;20524;-93
2022/05/07 00:31:00;;;;;;;28.80;26.80;;;;;;;;;;5053931;28;20414;-93
2022/05/07 00:33:27;;;;;;;26.97;25.07;;;;;;;;;;5053903;28;20509;-93
2022/05/07 00:35:55;;;;;;;28.43;26.33;;;;;;;;;;5053719;28;20439;-94
2022/05/07 00:38:24;;;;;;;28.07;26.07;;;;;;;;;;5053951;28;20417;-93
2022/05/07 00:40:51;;;;;;;29.00;26.80;;;;;;;;;;5054235;28;20421;-93
2022/05/07 00:43:18;;;;;;;27.67;25.67;;;;;;;;;;5054127;28;20462;-93
2022/05/07 00:45:47;;;;;;;27.00;25.17;;;;;;;;;;5054222;28;20800;-93
2022/05/07 00:48:14;;;;;;;28.10;26.10;;;;;;;;;;5054061;28;20430;-93
2022/05/07 00:53:28;;;;;;;29.17;27.10;;;;;;;;;;5053514;28;20437;-93
2022/05/07 00:55:57;;;;;;;28.03;26.13;;;;;;;;;;5068646;28;20421;-93
2022/05/07 00:58:25;;;;;;;29.50;27.03;;;;;;;;;;5053294;28;20478;-94
2022/05/07 01:00:53;;;;;;;29.63;27.33;;;;;;;;;;5054226;28;20916;-93
2022/05/07 01:03:21;;;;;;;28.27;26.17;;;;;;;;;;5053635;28;20407;-92
2022/05/07 01:05:49;;;;;;;29.30;27.10;;;;;;;;;;5053406;28;20478;-93
2022/05/07 01:08:16;;;;;;;29.23;27.00;;;;;;;;;;5053787;28;20443;-92
2022/05/07 01:10:46;;;;;;;28.33;26.43;;;;;;;;;;5055231;28;20439;-92
2022/05/07 01:13:13;;;;;;;28.30;26.20;;;;;;;;;;5057039;28;20447;-94
2022/05/07 01:15:44;;;;;;;30.03;27.33;;;;;;;;;;5057262;28;20414;-93
2022/05/07 01:18:12;;;;;;;28.63;26.73;;;;;;;;;;5057272;28;20446;-93
2022/05/07 01:20:39;;;;;;;29.27;27.23;;;;;;;;;;5057464;28;20439;-93
2022/05/07 01:23:09;;;;;;;28.87;26.63;;;;;;;;;;5057484;28;20485;-92
2022/05/07 01:25:37;;;;;;;29.23;27.00;;;;;;;;;;5056842;28;20569;-93
2022/05/07 01:28:05;;;;;;;28.33;26.43;;;;;;;;;;5056982;28;20414;-93
2022/05/07 01:30:32;;;;;;;31.73;29.20;;;;;;;;;;5057143;28;20414;-93
2022/05/07 01:33:00;;;;;;;29.20;27.00;;;;;;;;;;5056617;28;20520;-94
2022/05/07 01:35:27;;;;;;;29.50;27.10;;;;;;;;;;5057207;28;20433;-93
2022/05/07 01:37:54;;;;;;;28.17;26.07;;;;;;;;;;5056986;28;20467;-93
2022/05/07 01:40:23;;;;;;;30.50;28.03;;;;;;;;;;5057257;28;20425;-93
2022/05/07 01:42:51;;;;;;;29.17;27.10;;;;;;;;;;5057372;28;20493;-93
2022/05/07 01:45:18;;;;;;;29.67;27.50;;;;;;;;;;5057004;28;20483;-93
2022/05/07 01:50:30;;;;;;;29.37;27.27;;;;;;;;;;5056492;28;20481;-93
2022/05/07 01:52:58;;;;;;;29.60;27.30;;;;;;;;;;5056716;28;20421;-93
2022/05/07 01:55:27;;;;;;;31.13;28.50;;;;;;;;;;5057269;28;20799;-93
2022/05/07 01:57:54;;;;;;;30.63;28.33;;;;;;;;;;5056268;28;20544;-94
2022/05/07 02:00:21;;;;;;;30.30;28.03;;;;;;;;;;5056807;28;20414;-92
2022/05/07 02:02:49;;;;;;;32.23;29.63;;;;;;;;;;5055401;28;20816;-94
2022/05/07 02:05:16;;;;;;;30.20;28.00;;;;;;;;;;5072023;28;20457;-93
2022/05/07 02:07:44;;;;;;;31.83;29.23;;;;;;;;;;5056305;28;20444;-93
2022/05/07 02:10:12;;;;;;;32.30;29.87;;;;;;;;;;5056463;28;20415;-93
2022/05/07 02:12:41;;;;;;;30.03;27.63;;;;;;;;;;5055850;28;21378;-93
2022/05/07 02:15:09;;;;;;;29.17;27.17;;;;;;;;;;5056322;28;20486;-94
2022/05/07 02:17:36;;;;;;;30.30;27.90;;;;;;;;;;5056323;28;20439;-94
2022/05/07 02:20:04;;;;;;;29.63;27.23;;;;;;;;;;5056695;28;20780;-94
2022/05/07 02:22:32;;;;;;;29.00;27.00;;;;;;;;;;5055080;28;20409;-93
2022/05/07 02:24:59;;;;;;;30.77;28.43;;;;;;;;;;5056038;28;20457;-94
2022/05/07 02:27:27;;;;;;;31.40;29.03;;;;;;;;;;5056385;28;20458;-93
2022/05/07 02:29:56;;;;;;;33.10;30.13;;;;;;;;;;5055884;28;20413;-93
2022/05/07 02:32:23;;;;;;;29.83;27.60;;;;;;;;;;5054930;28;20542;-93
2022/05/07 02:34:50;;;;;;;29.30;27.50;;;;;;;;;;5054581;28;20417;-93
2022/05/07 02:37:18;;;;;;;29.33;27.23;;;;;;;;;;5071199;28;20475;-94
2022/05/07 02:39:45;;;;;;;30.30;28.00;;;;;;;;;;5071233;28;20806;-93
2022/05/07 02:44:59;;;;;;;29.57;27.40;;;;;;;;;;5055794;28;20468;-93
2022/05/07 02:47:26;;;;;;;30.13;27.63;;;;;;;;;;5056111;28;20437;-93
2022/05/07 02:49:54;;;;;;;32.50;29.90;;;;;;;;;;5055440;28;20588;-93
2022/05/07 02:52:21;;;;;;;31.77;29.37;;;;;;;;;;5054668;28;20443;-93
2022/05/07 02:54:48;;;;;;;31.43;29.00;;;;;;;;;;5055742;28;20439;-94
2022/05/07 02:57:16;;;;;;;31.07;28.80;;;;;;;;;;5055264;28;20643;-93
2022/05/07 02:59:43;;;;;;;30.67;28.20;;;;;;;;;;5055376;28;20542;-94
2022/05/07 03:02:12;;;;;;;30.67;28.50;;;;;;;;;;5055390;28;20451;-93
2022/05/07 03:04:39;;;;;;;29.83;27.53;;;;;;;;;;5055141;28;20930;-94
2022/05/07 03:07:07;;;;;;;30.47;28.00;;;;;;;;;;5055220;28;20462;-93
2022/05/07 03:09:34;;;;;;;31.73;29.23;;;;;;;;;;5055069;28;20921;-93
2022/05/07 03:12:01;;;;;;;31.60;29.20;;;;;;;;;;5054996;28;20449;-93
2022/05/07 03:14:29;;;;;;;32.80;29.97;;;;;;;;;;5055172;28;20765;-93
2022/05/07 03:16:56;;;;;;;30.43;27.90;;;;;;;;;;5055119;28;20417;-94
2022/05/07 03:19:25;;;;;;;32.00;29.40;;;;;;;;;;5055232;28;20410;-93
2022/05/07 03:21:53;;;;;;;31.77;29.07;;;;;;;;;;5054851;28;20435;-93
2022/05/07 03:24:20;;;;;;;31.87;29.17;;;;;;;;;;5054484;28;20922;-93
2022/05/07 03:26:48;;;;;;;31.47;28.87;;;;;;;;;;5055061;28;20479;-94
2022/05/07 03:29:15;;;;;;;30.87;28.57;;;;;;;;;;5054843;28;20414;-93
2022/05/07 03:31:42;;;;;;;33.17;30.23;;;;;;;;;;5054387;28;20435;-93
2022/05/07 03:34:10;;;;;;;31.53;28.90;;;;;;;;;;5069607;28;20452;-93
2022/05/07 03:36:39;;;;;;;33.10;30.37;;;;;;;;;;5054876;28;20444;-94
2022/05/07 03:39:06;;;;;;;32.13;29.43;;;;;;;;;;5070109;28;20425;-93
2022/05/07 03:41:34;;;;;;;32.57;30.03;;;;;;;;;;5054788;28;20770;-93
2022/05/07 03:44:01;;;;;;;32.63;29.70;;;;;;;;;;5054604;28;20526;-93
2022/05/07 03:46:29;;;;;;;32.83;29.90;;;;;;;;;;5070375;28;20536;-94
2022/05/07 03:48:57;;;;;;;32.50;29.60;;;;;;;;;;5053534;28;20439;-94
2022/05/07 03:51:24;;;;;;;32.17;29.57;;;;;;;;;;5054719;28;20917;-94
2022/05/07 03:53:52;;;;;;;31.70;28.97;;;;;;;;;;5054561;28;20439;-93
2022/05/07 03:56:19;;;;;;;32.83;30.23;;;;;;;;;;5054074;28;20439;-94
2022/05/07 03:58:47;;;;;;;31.77;29.23;;;;;;;;;;5054492;28;20459;-93
2022/05/07 04:01:15;;;;;;;32.53;30.10;;;;;;;;;;5054453;28;20414;-93
2022/05/07 04:03:42;;;;;;;32.50;29.63;;;;;;;;;;5069591;28;20430;-93
2022/05/07 04:06:09;;;;;;;30.30;27.80;;;;;;;;;;5053997;28;20507;-93
2022/05/07 04:08:37;;;;;;;32.50;29.77;;;;;;;;;;5054073;28;20761;-93
2022/05/07 04:11:05;;;;;;;33.43;30.53;;;;;;;;;;5054396;28;20461;-93
2022/05/07 04:13:33;;;;;;;32.97;30.37;;;;;;;;;;5054167;28;20410;-93
2022/05/07 04:16:00;;;;;;;32.17;29.33;;;;;;;;;;5053972;28;20429;-93
2022/05/07 04:18:28;;;;;;;31.47;28.83;;;;;;;;;;5053919;28;20425;-93
2022/05/07 04:20:55;;;;;;;30.73;28.17;;;;;;;;;;5053991;28;20529;-93
2022/05/07 04:23:22;;;;;;;32.03;29.53;;;;;;;;;;5069390;28;20443;-93
2022/05/07 04:25:50;;;;;;;32.50;29.83;;;;;;;;;;5054012;28;20483;-94
2022/05/07 04:28:19;;;;;;;33.33;30.33;;;;;;;;;;5054094;28;20455;-93
2022/05/07 04:30:46;;;;;;;32.30;29.50;;;;;;;;;;5069484;28;21022;-93
2022/05/07 04:33:14;;;;;;;31.17;28.87;;;;;;;;;;5052986;28;20439;-93
2022/05/07 04:35:41;;;;;;;34.13;30.93;;;;;;;;;;5069244;28;20472;-94
2022/05/07 04:38:09;;;;;;;32.90;30.10;;;;;;;;;;5053969;28;20438;-94
2022/05/07 04:40:36;;;;;;;33.20;30.40;;;;;;;;;;5054033;28;20462;-93
2022/05/07 04:43:04;;;;;;;31.87;29.27;;;;;;;;;;5053489;28;20418;-93
2022/05/07 04:45:34;;;;;;;33.50;30.33;;;;;;;;;;5055654;28;20418;-93
2022/05/07 04:48:01;;;;;;;32.63;29.70;;;;;;;;;;5058072;28;20420;-93
2022/05/07 04:50:29;;;;;;;33.60;30.90;;;;;;;;;;5057672;28;20427;-93
2022/05/07 04:52:57;;;;;;;36.60;33.40;;;;;;;;;;5058218;28;20438;-93
2022/05/07 04:55:24;;;;;;;35.77;32.10;;;;;;;;;;5073395;28;20929;-94
2022/05/07 04:57:51;;;;;;;33.93;31.13;;;;;;;;;;5057952;28;20467;-93
2022/05/07 05:00:20;;;;;;;33.57;30.70;;;;;;;;;;5057779;28;20455;-93
2022/05/07 05:02:49;;;;;;;32.23;29.63;;;;;;;;;;5057587;28;20458;-94
2022/05/07 05:05:16;;;;;;;33.57;30.60;;;;;;;;;;5057621;28;20411;-94
2022/05/07 05:07:44;;;;;;;31.83;29.13;;;;;;;;;;5056654;28;20592;-93
2022/05/07 05:10:11;;;;;;;36.47;32.80;;;;;;;;;;5056242;28;20505;-93
2022/05/07 05:12:39;;;;;;;33.47;30.37;;;;;;;;;;5057399;28;21019;-93
2022/05/07 05:15:08;;;;;;;33.60;30.80;;;;;;;;;;5057877;28;20440;-93
2022/05/07 05:17:37;;;;;;;32.83;30.23;;;;;;;;;;5057514;28;20463;-94
2022/05/07 05:20:07;;;;;;;34.63;31.63;;;;;;;;;;5057408;28;20908;-93
2022/05/07 05:22:34;;;;;;;33.37;30.47;;;;;;;;;;5057329;28;20485;-94
2022/05/07 05:25:04;;;;;;;32.97;30.30;;;;;;;;;;5057238;28;20430;-93
2022/05/07 05:27:32;;;;;;;32.77;30.00;;;;;;;;;;5057103;28;20460;-93
2022/05/07 05:30:00;;;;;;;34.90;31.80;;;;;;;;;;5057599;28;20433;-93
2022/05/07 05:32:27;;;;;;;35.20;32.00;;;;;;;;;;5055895;28;20429;-93
2022/05/07 05:34:54;;;;;;;33.70;30.90;;;;;;;;;;5072866;28;20421;-94
2022/05/07 05:37:23;;;;;;;33.00;30.50;;;;;;;;;;5057234;28;20808;-93
2022/05/07 05:39:51;;;;;;;32.93;30.13;;;;;;;;;;5056995;28;20489;-93
2022/05/07 05:42:18;;;;;;;35.27;31.97;;;;;;;;;;5057065;28;20763;-94
2022/05/07 05:44:46;;;;;;;33.27;30.50;;;;;;;;;;5056821;28;20793;-93
2022/05/07 05:47:13;;;;;;;35.73;32.50;;;;;;;;;;5056591;28;20453;-94
2022/05/07 05:49:41;;;;;;;32.27;29.60;;;;;;;;;;5056836;28;20919;-93
2022/05/07 05:52:09;;;;;;;34.60;31.67;;;;;;;;;;5055605;28;20505;-94
2022/05/07 05:54:38;;;;;;;33.33;30.63;;;;;;;;;;5057072;28;20450;-93
2022/05/07 05:57:06;;;;;;;34.03;31.17;;;;;;;;;;5072091;28;20582;-94
2022/05/07 05:59:34;;;;;;;34.03;31.17;;;;;;;;;;5071925;28;20410;-87
2022/05/07 06:02:01;;;;;;;36.03;32.80;;;;;;;;;;5056607;28;20402;-94
2022/05/07 06:04:29;;;;;;;34.37;31.57;;;;;;;;;;5056048;28;20406;-93
2022/05/07 06:06:56;;;;;;;35.20;31.83;;;;;;;;;;5055991;28;20494;-92
2022/05/07 06:09:24;;;;;;;32.73;30.23;;;;;;;;;;5071559;28;20791;-92
2022/05/07 06:11:54;;;;;;;34.70;31.60;;;;;;;;;;5057953;28;20545;-92
2022/05/07 06:14:22;;;;;;;34.20;31.60;;;;;;;;;;5074922;28;20475;-92
2022/05/07 06:16:49;;;;;;;35.03;31.33;;;;;;;;;;5057344;28;20439;-93
2022/05/07 06:19:17;;;;;;;34.33;31.50;;;;;;;;;;5056537;28;20434;-93
2022/05/07 06:21:44;;;;;;;34.43;31.40;;;;;;;;;;5056217;28;20411;-91
2022/05/07 06:29:42;;;;;;;33.97;31.20;;;;;;;;;;5055690;28;20549;-90
2022/05/07 06:32:11;;;;;;;35.43;32.30;;;;;;;;;;5071021;28;20417;-90
2022/05/07 06:34:38;;;;;;;35.10;32.17;;;;;;;;;;5054850;28;20417;-90
2022/05/07 06:37:06;;;;;;;34.67;31.73;;;;;;;;;;5055771;28;20422;-90
2022/05/07 06:39:33;;;;;;;35.27;32.23;;;;;;;;;;5055761;28;20454;-90
2022/05/07 06:42:02;;;;;;;35.17;32.43;;;;;;;;;;5056491;28;20872;-93
2022/05/07 06:44:29;;;;;;;34.70;31.70;;;;;;;;;;5057194;28;20761;-93
2022/05/07 06:46:57;;;;;;;34.17;31.33;;;;;;;;;;5057338;28;20454;-93
2022/05/07 06:49:25;;;;;;;34.57;31.90;;;;;;;;;;5056083;28;20414;-92
2022/05/07 06:51:52;;;;;;;33.00;30.50;;;;;;;;;;5072100;28;20908;-91
2022/05/07 06:54:20;;;;;;;34.03;31.40;;;;;;;;;;5056181;28;20439;-93
2022/05/07 06:56:48;;;;;;;33.53;31.03;;;;;;;;;;5055701;28;20504;-94
2022/05/07 06:59:17;;;;;;;34.03;31.33;;;;;;;;;;5055883;28;20460;-93
2022/05/07 07:01:45;;;;;;;34.53;31.93;;;;;;;;;;5055644;28;20433;-93
2022/05/07 07:04:12;;;;;;;33.50;30.67;;;;;;;;;;5055827;28;20489;-93
2022/05/07 07:06:40;;;;;;;32.50;29.93;;;;;;;;;;5055298;28;20442;-91
2022/05/07 07:09:07;;;;;;;33.13;30.70;;;;;;;;;;5054879;28;20422;-92
2022/05/07 07:11:35;;;;;;;32.63;30.30;;;;;;;;;;5055750;28;20446;-93
2022/05/07 07:14:03;;;;;;;33.90;31.10;;;;;;;;;;5071341;28;20444;-91
2022/05/07 07:16:32;;;;;;;32.00;29.43;;;;;;;;;;5054681;28;20448;-84
2022/05/07 07:18:59;;;;;;;32.53;30.03;;;;;;;;;;5070506;28;20474;-93
2022/05/07 07:21:27;;;;;;;33.50;30.90;;;;;;;;;;5055181;28;20406;-93
2022/05/07 07:23:54;;;;;;;34.33;31.53;;;;;;;;;;5070650;28;21022;-88
2022/05/07 07:26:22;;;;;;;33.93;31.37;;;;;;;;;;5054453;28;20442;-92
2022/05/07 07:28:49;;;;;;;33.70;31.00;;;;;;;;;;5055327;28;20547;-92
2022/05/07 07:31:17;;;;;;;32.60;30.13;;;;;;;;;;5054677;28;20483;-89
2022/05/07 07:33:46;;;;;;;33.43;30.80;;;;;;;;;;5054104;28;20541;-89
2022/05/07 07:36:13;;;;;;;34.17;31.37;;;;;;;;;;5054679;28;20459;-89
2022/05/07 07:38:40;;;;;;;33.90;31.00;;;;;;;;;;5054468;28;20413;-89
2022/05/07 07:41:08;;;;;;;37.00;33.90;;;;;;;;;;5054824;28;20422;-89
2022/05/07 07:43:36;;;;;;;39.60;35.90;;;;;;;;;;5054452;28;20460;-91
2022/05/07 07:48:50;;;;;;;37.27;34.33;;;;;;;;;;5054232;28;20496;-89
2022/05/07 07:51:18;;;;;;;36.50;33.40;;;;;;;;;;5054346;28;20414;-88
2022/05/07 07:53:46;;;;;;;32.83;30.17;;;;;;;;;;5054172;28;20429;-89
2022/05/07 07:56:14;;;;;;;34.67;31.90;;;;;;;;;;5054733;28;20436;-89
2022/05/07 07:58:41;;;;;;;36.20;33.23;;;;;;;;;;5053286;28;20979;-85
2022/05/07 08:01:09;;;;;;;36.43;33.60;;;;;;;;;;5053373;28;20418;-85
2022/05/07 08:03:36;;;;;;;36.73;33.47;;;;;;;;;;5053602;28;20406;-84
2022/05/07 08:06:05;;;;;;;35.47;32.67;;;;;;;;;;5054029;28;20434;-85
2022/05/07 08:14:02;;;;;;;34.30;31.63;;;;;;;;;;5054064;28;20420;-85
2022/05/07 08:16:30;;;;;;;33.20;30.70;;;;;;;;;;5053840;28;20409;-86
2022/05/07 08:18:57;;;;;;;33.93;31.17;;;;;;;;;;5053443;28;20451;-85
2022/05/07 08:21:26;;;;;;;33.20;30.70;;;;;;;;;;5053262;28;20456;-85
2022/05/07 08:23:53;;;;;;;32.37;29.73;;;;;;;;;;5053965;28;20447;-86
2022/05/07 08:26:21;;;;;;;33.43;30.77;;;;;;;;;;5053351;28;20896;-86
2022/05/07 08:28:51;;;;;;;33.30;30.70;;;;;;;;;;5053706;28;20418;-85
2022/05/07 08:31:21;;;;;;;36.03;33.13;;;;;;;;;;5053565;28;20533;-85
2022/05/07 08:33:49;;;;;;;34.17;31.53;;;;;;;;;;5053453;28;20426;-84
2022/05/07 08:36:17;;;;;;;33.93;31.13;;;;;;;;;;5053728;28;20644;-84
2022/05/07 08:38:46;;;;;;;32.70;30.30;;;;;;;;;;5053545;28;20923;-85
2022/05/07 08:41:13;;;;;;;30.30;27.80;;;;;;;;;;5053498;28;20429;-87
2022/05/07 08:43:42;;;;;;;31.23;28.77;;;;;;;;;;5053518;28;20560;-86
2022/05/07 08:46:11;;;;;;;31.93;29.70;;;;;;;;;;5054028;28;20527;-86
2022/05/07 08:48:40;;;;;;;34.90;32.10;;;;;;;;;;5068916;28;20454;-86
2022/05/07 08:51:07;;;;;;;34.83;32.10;;;;;;;;;;5053600;28;20436;-85
2022/05/07 08:53:34;;;;;;;30.27;28.07;;;;;;;;;;5052878;28;20413;-85
2022/05/07 08:56:04;;;;;;;30.80;28.40;;;;;;;;;;5052636;28;20908;-84
2022/05/07 08:58:31;;;;;;;32.60;30.20;;;;;;;;;;5052636;28;20493;-83
2022/05/07 09:01:00;;;;;;;32.27;29.83;;;;;;;;;;5052885;28;20444;-84
2022/05/07 09:03:38;;;;;;;31.53;29.30;;;;;;;;;;5052793;28;20542;-83
2022/05/07 09:06:16;;;;;;;33.07;30.53;;;;;;;;;;5052877;28;20431;-84
2022/05/07 09:08:43;;;;;;;31.90;29.60;;;;;;;;;;5053212;28;20486;-85
2022/05/07 09:11:12;;;;;;;32.27;29.77;;;;;;;;;;5052955;28;20445;-84
2022/05/07 09:13:40;;;;;;;35.13;31.90;;;;;;;;;;5052451;28;20411;-83
2022/05/07 09:16:09;;;;;;;34.03;31.43;;;;;;;;;;5052414;28;20422;-84
2022/05/07 09:18:36;;;;;;;34.67;32.07;;;;;;;;;;5052962;28;20417;-86
2022/05/07 09:21:17;;;;;;;34.60;31.90;;;;;;;;;;5052930;28;20418;-86
2022/05/07 09:23:45;;;;;;;34.87;31.80;;;;;;;;;;5053526;28;20422;-86
2022/05/07 09:26:25;;;;;;;37.13;34.23;;;;;;;;;;5053224;28;20471;-86
2022/05/07 09:28:52;;;;;;;34.57;31.97;;;;;;;;;;5068637;28;20483;-86
2022/05/07 09:31:24;;;;;;;35.10;32.40;;;;;;;;;;5053647;28;20425;-86
2022/05/07 09:33:51;;;;;;;34.50;31.80;;;;;;;;;;5056413;28;20517;-84
2022/05/07 09:36:18;;;;;;;34.07;31.60;;;;;;;;;;5056764;28;20915;-86
2022/05/07 09:38:48;;;;;;;35.60;32.80;;;;;;;;;;5056984;28;20497;-86
2022/05/07 09:41:22;;;;;;;35.83;33.23;;;;;;;;;;5056520;28;20430;-86
2022/05/07 09:43:52;;;;;;;34.77;32.20;;;;;;;;;;5056775;28;20444;-84
2022/05/07 09:46:20;;;;;;;36.63;33.83;;;;;;;;;;5071277;28;20428;-84
2022/05/07 09:48:47;;;;;;;38.00;34.80;;;;;;;;;;5057039;28;20565;-84
2022/05/07 09:51:15;;;;;;;37.53;34.73;;;;;;;;;;5071211;28;20426;-85
2022/05/07 09:59:16;;;;;;;34.70;31.87;;;;;;;;;;5056002;28;20437;-85
2022/05/07 10:02:01;;;;;;;33.10;30.70;;;;;;;;;;5055951;28;20443;-85
2022/05/07 10:04:38;;;;;;;30.80;28.30;;;;;;;;;;5055663;28;20506;-85
2022/05/07 10:07:19;;;;;;;32.93;30.53;;;;;;;;;;5055509;28;20508;-84
2022/05/07 10:09:58;;;;;;;32.13;29.70;;;;;;;;;;5055834;28;20437;-83
2022/05/07 10:12:26;;;;;;;31.77;29.37;;;;;;;;;;5055978;28;20866;-84
2022/05/07 10:15:05;;;;;;;32.40;30.00;;;;;;;;;;5055028;28;20426;-82
2022/05/07 10:17:34;;;;;;;25.80;24.10;;;;;;;;;;5055650;28;20406;-85
2022/05/07 10:20:05;;;;;;;28.53;26.63;;;;;;;;;;5055835;28;20951;-83
2022/05/07 10:22:33;;;;;;;28.20;26.20;;;;;;;;;;5055398;28;20417;-83
2022/05/07 10:25:05;;;;;;;32.07;29.60;;;;;;;;;;5055215;28;20933;-84
2022/05/07 10:27:33;;;;;;;30.27;27.97;;;;;;;;;;5070597;28;20465;-84
2022/05/07 10:30:10;;;;;;;30.70;28.40;;;;;;;;;;5054112;28;20418;-84
2022/05/07 10:32:48;;;;;;;32.13;29.80;;;;;;;;;;5054737;28;20900;-84
2022/05/07 10:35:16;;;;;;;29.67;27.27;;;;;;;;;;5054787;28;20908;-83
2022/05/07 10:37:43;;;;;;;31.10;28.53;;;;;;;;;;5055029;28;20418;-83
2022/05/07 10:40:12;;;;;;;29.70;27.60;;;;;;;;;;5054852;28;20917;-83
2022/05/07 10:42:40;;;;;;;32.40;29.93;;;;;;;;;;5053821;28;20507;-83
2022/05/07 10:45:09;;;;;;;32.00;29.60;;;;;;;;;;5054894;28;20469;-84
2022/05/07 10:47:36;;;;;;;31.67;29.37;;;;;;;;;;5054609;28;20515;-83
2022/05/07 10:50:11;;;;;;;30.60;28.00;;;;;;;;;;5053298;28;20422;-83
2022/05/07 10:52:38;;;;;;;30.07;27.97;;;;;;;;;;5054417;28;20443;-83
2022/05/07 10:55:10;;;;;;;29.73;27.63;;;;;;;;;;5054708;28;20433;-83
2022/05/07 10:57:44;;;;;;;31.20;28.90;;;;;;;;;;5054191;28;20490;-83
2022/05/07 11:00:17;;;;;;;31.53;29.10;;;;;;;;;;5054706;28;20463;-83
2022/05/07 11:02:45;;;;;;;28.30;26.40;;;;;;;;;;5054421;28;20443;-83
2022/05/07 11:05:13;;;;;;;27.60;25.70;;;;;;;;;;5054198;28;20778;-82
2022/05/07 11:07:41;;;;;;;25.20;23.60;;;;;;;;;;5054197;28;20562;-83
2022/05/07 11:10:11;;;;;;;23.93;22.33;;;;;;;;;;5054340;28;20479;-83
2022/05/07 11:12:39;;;;;;;22.17;20.90;;;;;;;;;;5054638;28;20443;-83
2022/05/07 11:15:07;;;;;;;24.03;22.53;;;;;;;;;;5054665;28;20428;-83
2022/05/07 11:17:40;;;;;;;26.47;24.67;;;;;;;;;;5054653;28;20418;-83
2022/05/07 11:20:08;;;;;;;26.57;24.67;;;;;;;;;;5054070;28;20426;-82
2022/05/07 11:22:39;;;;;;;24.80;23.20;;;;;;;;;;5055003;28;20879;-87
2022/05/07 11:25:07;;;;;;;24.93;23.13;;;;;;;;;;5055299;28;20422;-87
2022/05/07 11:27:35;;;;;;;24.63;22.93;;;;;;;;;;5055244;28;20451;-87
2022/05/07 11:30:04;;;;;;;26.50;24.50;;;;;;;;;;5054913;28;20418;-87
2022/05/07 11:32:39;;;;;;;26.00;24.40;;;;;;;;;;5054530;28;20468;-86
2022/05/07 11:35:07;;;;;;;26.70;24.80;;;;;;;;;;5054774;28;20427;-87
2022/05/07 11:37:42;;;;;;;27.43;25.47;;;;;;;;;;5054826;28;20434;-86
2022/05/07 11:40:09;;;;;;;26.90;24.90;;;;;;;;;;5054775;28;20478;-87
2022/05/07 11:42:37;;;;;;;27.10;25.30;;;;;;;;;;5054850;28;20460;-86
2022/05/07 11:45:29;;;;;;;25.97;24.17;;;;;;;;;;5054958;28;20921;-87
2022/05/07 11:47:59;;;;;;;26.80;25.10;;;;;;;;;;5054728;28;20549;-86
2022/05/07 11:50:27;;;;;;;27.77;25.97;;;;;;;;;;5054816;28;20518;-86
2022/05/07 11:52:54;;;;;;;27.10;25.30;;;;;;;;;;5054148;28;20905;-87
2022/05/07 11:55:25;;;;;;;28.10;25.87;;;;;;;;;;5054250;28;20443;-86
2022/05/07 11:57:53;;;;;;;29.93;27.80;;;;;;;;;;5053158;28;20545;-85
2022/05/07 12:00:22;;;;;;;28.40;26.50;;;;;;;;;;5054216;28;20438;-87
2022/05/07 12:02:50;;;;;;;28.03;26.13;;;;;;;;;;5069407;28;20426;-87
2022/05/07 12:05:19;;;;;;;29.53;27.47;;;;;;;;;;5054273;28;20461;-87
2022/05/07 12:07:47;;;;;;;28.50;26.50;;;;;;;;;;5054188;28;20433;-87
2022/05/07 12:10:15;;;;;;;29.20;27.23;;;;;;;;;;5069740;28;20533;-87
2022/05/07 12:12:42;;;;;;;29.10;27.00;;;;;;;;;;5054251;28;20440;-85
2022/05/07 12:15:10;;;;;;;30.13;28.03;;;;;;;;;;5054247;28;20468;-87
2022/05/07 12:17:52;;;;;;;28.20;26.30;;;;;;;;;;5054351;28;20425;-88
2022/05/07 12:20:22;;;;;;;28.53;26.20;;;;;;;;;;5054442;28;20929;-86
2022/05/07 12:31:04;;;;;;;30.60;28.47;;;;;;;;;;5053788;28;20564;-86
2022/05/07 12:33:32;;;;;;;30.33;28.30;;;;;;;;;;5069212;28;20422;-86
2022/05/07 12:36:01;;;;;;;30.50;28.20;;;;;;;;;;5053748;28;20903;-86
2022/05/07 12:38:29;;;;;;;29.87;27.87;;;;;;;;;;5054177;28;20447;-85
2022/05/07 12:40:56;;;;;;;29.53;27.43;;;;;;;;;;5053754;28;20455;-84
2022/05/07 12:43:23;;;;;;;30.27;27.67;;;;;;;;;;5053287;28;20410;-86
2022/05/07 12:45:52;;;;;;;29.23;26.90;;;;;;;;;;5053382;28;20430;-84
2022/05/07 12:48:19;;;;;;;31.80;29.37;;;;;;;;;;5052159;28;20482;-85
2022/05/07 12:50:47;;;;;;;30.87;28.67;;;;;;;;;;5053224;28;20501;-85
2022/05/07 12:53:16;;;;;;;31.47;28.97;;;;;;;;;;5068707;28;20952;-85
2022/05/07 12:55:44;;;;;;;30.77;28.63;;;;;;;;;;5053392;28;20553;-85
2022/05/07 12:58:12;;;;;;;32.10;29.70;;;;;;;;;;5053432;28;20474;-85
2022/05/07 13:00:40;;;;;;;31.33;29.10;;;;;;;;;;5053533;28;20439;-86
2022/05/07 13:03:08;;;;;;;31.47;29.30;;;;;;;;;;5053414;28;20438;-86
2022/05/07 13:05:36;;;;;;;31.57;29.37;;;;;;;;;;5069141;28;20443;-86
2022/05/07 13:08:05;;;;;;;30.30;28.10;;;;;;;;;;5057350;28;21063;-85
2022/05/07 13:10:34;;;;;;;31.57;29.27;;;;;;;;;;5057205;28;20477;-86
2022/05/07 13:13:02;;;;;;;28.93;26.93;;;;;;;;;;5057288;28;20940;-85
2022/05/07 13:15:30;;;;;;;31.87;29.60;;;;;;;;;;5057484;28;20431;-86
2022/05/07 13:17:57;;;;;;;28.30;26.30;;;;;;;;;;5057000;28;20442;-86
2022/05/07 13:20:25;;;;;;;28.47;26.73;;;;;;;;;;5057326;28;20441;-86
2022/05/07 13:22:53;;;;;;;28.23;26.00;;;;;;;;;;5057529;28;20434;-86
2022/05/07 13:25:22;;;;;;;27.00;25.30;;;;;;;;;;5057485;28;20436;-86
2022/05/07 13:27:51;;;;;;;29.73;27.60;;;;;;;;;;5056970;28;20921;-86
2022/05/07 13:30:19;;;;;;;27.33;25.63;;;;;;;;;;5056718;28;20491;-86
2022/05/07 13:32:47;;;;;;;30.87;28.60;;;;;;;;;;5057007;28;20986;-86
2022/05/07 13:35:15;;;;;;;32.17;29.53;;;;;;;;;;5056987;28;20525;-86
2022/05/07 13:37:42;;;;;;;31.13;28.93;;;;;;;;;;5057059;28;20418;-86
2022/05/07 13:40:10;;;;;;;30.90;29.00;;;;;;;;;;5057076;28;20907;-86
2022/05/07 13:42:38;;;;;;;31.63;29.43;;;;;;;;;;5056974;28;20820;-86
2022/05/07 13:45:09;;;;;;;34.30;31.80;;;;;;;;;;5056596;28;20418;-87
2022/05/07 13:47:37;;;;;;;31.57;29.53;;;;;;;;;;5056656;28;20461;-86
2022/05/07 13:50:05;;;;;;;33.57;31.17;;;;;;;;;;5057028;28;20479;-87
2022/05/07 13:52:35;;;;;;;32.13;29.63;;;;;;;;;;5057014;28;20763;-86
2022/05/07 13:55:02;;;;;;;33.93;31.37;;;;;;;;;;5056545;28;20437;-86
2022/05/07 13:57:30;;;;;;;34.60;32.00;;;;;;;;;;5056244;28;20478;-87
2022/05/07 13:59:57;;;;;;;34.17;31.40;;;;;;;;;;5056445;28;20777;-87
2022/05/07 14:02:26;;;;;;;33.70;31.37;;;;;;;;;;5056560;28;21195;-86
2022/05/07 14:04:54;;;;;;;33.60;30.83;;;;;;;;;;5056595;28;20437;-87
2022/05/07 14:07:21;;;;;;;32.37;29.60;;;;;;;;;;5056516;28;20790;-86
2022/05/07 14:09:49;;;;;;;34.47;31.80;;;;;;;;;;5056470;28;21004;-87
2022/05/07 14:12:17;;;;;;;33.60;30.60;;;;;;;;;;5056362;28;20548;-86
2022/05/07 14:14:44;;;;;;;33.13;30.40;;;;;;;;;;5056116;28;20434;-86
2022/05/07 14:17:12;;;;;;;33.53;30.60;;;;;;;;;;5055917;28;20957;-87
2022/05/07 14:19:41;;;;;;;33.70;30.57;;;;;;;;;;5056401;28;20521;-86
2022/05/07 14:22:09;;;;;;;35.40;32.27;;;;;;;;;;5055919;28;20435;-86
2022/05/07 14:24:38;;;;;;;32.53;29.73;;;;;;;;;;5056376;28;20418;-86
2022/05/07 14:27:06;;;;;;;32.47;29.57;;;;;;;;;;5056248;28;20505;-86
2022/05/07 14:29:34;;;;;;;32.00;29.20;;;;;;;;;;5055801;28;20468;-85
2022/05/07 14:32:02;;;;;;;32.30;29.73;;;;;;;;;;5056087;28;20443;-86
2022/05/07 14:34:30;;;;;;;32.77;30.07;;;;;;;;;;5055796;28;20450;-86
2022/05/07 14:36:59;;;;;;;32.13;29.67;;;;;;;;;;5056064;28;20489;-86
2022/05/07 14:39:26;;;;;;;31.43;29.00;;;;;;;;;;5055737;28;20429;-85
2022/05/07 14:41:54;;;;;;;35.33;32.60;;;;;;;;;;5056289;28;20905;-86
2022/05/07 14:44:21;;;;;;;32.30;29.80;;;;;;;;;;5055835;28;20502;-86
2022/05/07 14:46:49;;;;;;;30.80;28.53;;;;;;;;;;5054802;28;20948;-86
2022/05/07 14:49:17;;;;;;;30.70;28.27;;;;;;;;;;5055443;28;20487;-86
2022/05/07 14:51:44;;;;;;;31.57;29.13;;;;;;;;;;5055503;28;20422;-86
2022/05/07 14:54:13;;;;;;;33.23;30.53;;;;;;;;;;5055668;28;20494;-86
2022/05/07 14:56:40;;;;;;;31.67;29.37;;;;;;;;;;5055242;28;20461;-86
2022/05/07 14:59:09;;;;;;;33.37;30.77;;;;;;;;;;5055086;28;20429;-85
2022/05/07 15:01:37;;;;;;;33.33;30.27;;;;;;;;;;5055313;28;20440;-86